createdAt,value
2023-06-11T00:01:21.314Z,100685.13
2023-06-11T00:03:56.094Z,100713.00
2023-06-11T00:06:28.150Z,100688.72
2023-06-11T00:08:59.938Z,100709.84
2023-06-11T00:11:31.787Z,100706.91
2023-06-11T00:14:03.575Z,100690.50
2023-06-11T00:16:36.121Z,100703.75
2023-06-11T00:19:08.086Z,100718.63
2023-06-11T00:21:45.073Z,100727.03
2023-06-11T00:24:17.326Z,100703.53
2023-06-11T00:26:49.824Z,100714.72
2023-06-11T00:29:21.631Z,100720.00
2023-06-11T00:31:53.802Z,100706.72
2023-06-11T00:34:26.473Z,100709.44
2023-06-11T00:36:58.578Z,100717.31
2023-06-11T00:39:30.778Z,100670.47
2023-06-11T00:42:02.870Z,100707.50
2023-06-11T00:44:35.346Z,100718.09
2023-06-11T00:47:09.925Z,100683.56
2023-06-11T00:49:41.794Z,100713.28
2023-06-11T00:52:17.228Z,100697.97
2023-06-11T00:54:49.544Z,100722.03
2023-06-11T00:57:26.224Z,100696.91
2023-06-11T00:59:58.547Z,100708.34
2023-06-11T01:02:37.509Z,100728.28
2023-06-11T01:05:10.728Z,100703.63
2023-06-11T01:07:51.712Z,100708.16
2023-06-11T01:10:24.367Z,100727.41
2023-06-11T01:12:56.145Z,100723.91
2023-06-11T01:15:27.937Z,100709.00
2023-06-11T01:18:20.641Z,100717.28
2023-06-11T01:21:05.627Z,100690.63
2023-06-11T01:23:47.800Z,100735.25
2023-06-11T01:26:34.380Z,100732.66
2023-06-11T01:29:09.475Z,100696.50
2023-06-11T01:31:43.146Z,100735.59
2023-06-11T01:34:15.003Z,100711.22
2023-06-11T01:36:46.804Z,100732.97
2023-06-11T01:39:18.596Z,100742.84
2023-06-11T01:41:50.479Z,100732.06
2023-06-11T01:44:23.527Z,100732.50
2023-06-11T01:46:55.361Z,100720.09
2023-06-11T01:49:27.136Z,100725.97
2023-06-11T01:51:58.916Z,100717.84
2023-06-11T01:54:31.149Z,100747.78
2023-06-11T01:57:02.944Z,100727.00
2023-06-11T01:59:34.736Z,100751.25
2023-06-11T02:02:06.710Z,100737.03
2023-06-11T02:04:38.567Z,100716.78
2023-06-11T02:07:10.389Z,100736.59
2023-06-11T02:09:42.407Z,100733.75
2023-06-11T02:12:14.219Z,100724.28
2023-06-11T02:14:46.048Z,100732.94
2023-06-11T02:17:18.033Z,100740.97
2023-06-11T02:19:50.690Z,100767.63
2023-06-11T02:22:22.478Z,100758.94
2023-06-11T02:24:54.380Z,100727.06
2023-06-11T02:27:26.315Z,100760.72
2023-06-11T02:29:58.654Z,100744.13
2023-06-11T02:32:30.680Z,100761.81
2023-06-11T02:35:02.569Z,100728.34
2023-06-11T02:37:34.350Z,100756.25
2023-06-11T02:40:07.004Z,100780.22
2023-06-11T02:42:38.790Z,100765.16
2023-06-11T02:45:11.293Z,100784.25
2023-06-11T02:47:43.337Z,100730.09
2023-06-11T02:50:15.171Z,100776.06
2023-06-11T02:52:47.219Z,100762.50
2023-06-11T02:55:19.100Z,100760.97
2023-06-11T02:57:50.956Z,100775.47
2023-06-11T03:00:22.808Z,100748.38
2023-06-11T03:02:54.687Z,100788.78
2023-06-11T03:05:26.539Z,100791.13
2023-06-11T03:07:59.173Z,100803.94
2023-06-11T03:10:30.978Z,100800.97
2023-06-11T03:13:02.786Z,100775.06
2023-06-11T03:15:34.994Z,100808.22
2023-06-11T03:18:06.818Z,100776.66
2023-06-11T03:20:38.634Z,100811.19
2023-06-11T03:23:12.113Z,100796.94
2023-06-11T03:25:44.635Z,100811.28
2023-06-11T03:28:17.396Z,100815.31
2023-06-11T03:30:49.217Z,100817.44
2023-06-11T03:33:21.229Z,100817.47
2023-06-11T03:35:53.118Z,100791.66
2023-06-11T03:38:24.907Z,100796.59
2023-06-11T03:40:56.844Z,100815.53
2023-06-11T03:43:28.676Z,100809.22
2023-06-11T03:46:00.442Z,100811.09
2023-06-11T03:48:32.208Z,100819.13
2023-06-11T03:51:04.057Z,100817.91
2023-06-11T03:53:35.960Z,100830.66
2023-06-11T03:56:07.764Z,100823.75
2023-06-11T03:58:39.608Z,100805.34
2023-06-11T04:01:11.427Z,100822.63
2023-06-11T04:03:43.857Z,100834.69
2023-06-11T04:06:17.442Z,100834.84
2023-06-11T04:08:49.217Z,100841.16
2023-06-11T04:11:21.285Z,100850.63
2023-06-11T04:13:53.195Z,100821.63
2023-06-11T04:16:24.980Z,100845.00
2023-06-11T04:18:56.797Z,100802.28
2023-06-11T04:21:28.675Z,100833.59
2023-06-11T04:24:00.533Z,100839.63
2023-06-11T04:26:33.155Z,100853.38
2023-06-11T04:29:05.107Z,100846.31
2023-06-11T04:31:36.893Z,100846.03
2023-06-11T04:34:10.305Z,100814.31
2023-06-11T04:36:43.374Z,100822.44
2023-06-11T04:39:15.703Z,100859.63
2023-06-11T04:41:48.600Z,100847.41
2023-06-11T04:44:21.790Z,100866.09
2023-06-11T04:46:59.142Z,100839.13
2023-06-11T04:49:31.147Z,100845.50
2023-06-11T04:52:03.433Z,100855.59
2023-06-11T04:54:35.193Z,100833.59
2023-06-11T04:57:07.067Z,100839.25
2023-06-11T04:59:38.856Z,100839.81
2023-06-11T05:02:10.718Z,100847.69
2023-06-11T05:04:42.966Z,100850.16
2023-06-11T05:07:16.691Z,100869.28
2023-06-11T05:09:48.495Z,100871.31
2023-06-11T05:12:20.268Z,100863.66
2023-06-11T05:14:52.031Z,100866.25
2023-06-11T05:17:23.993Z,100864.41
2023-06-11T05:19:56.275Z,100868.91
2023-06-11T05:22:28.180Z,100853.16
2023-06-11T05:24:59.952Z,100854.41
2023-06-11T05:27:33.082Z,100843.56
2023-06-11T05:30:05.283Z,100852.09
2023-06-11T05:32:38.033Z,100861.00
2023-06-11T05:35:10.204Z,100834.97
2023-06-11T05:37:42.344Z,100884.53
2023-06-11T05:40:14.748Z,100855.03
2023-06-11T05:42:46.691Z,100875.03
2023-06-11T05:45:20.928Z,100887.53
2023-06-11T05:47:53.020Z,100875.22
2023-06-11T05:50:24.898Z,100858.72
2023-06-11T05:52:56.714Z,100850.19
2023-06-11T05:55:28.538Z,100876.13
2023-06-11T05:58:00.290Z,100865.16
2023-06-11T06:00:32.121Z,100869.66
2023-06-11T06:03:05.655Z,100871.75
2023-06-11T06:05:37.776Z,100885.09
2023-06-11T06:08:09.547Z,100868.22
2023-06-11T06:10:41.381Z,100877.56
2023-06-11T06:13:13.170Z,100888.31
2023-06-11T06:15:45.115Z,100861.63
2023-06-11T06:18:19.697Z,100872.25
2023-06-11T06:20:51.505Z,100873.78
2023-06-11T06:23:23.454Z,100884.13
2023-06-11T06:25:56.780Z,100868.44
2023-06-11T06:28:28.562Z,100886.44
2023-06-11T06:31:00.496Z,100872.53
2023-06-11T06:33:37.554Z,100886.00
2023-06-11T06:36:09.425Z,100877.56
2023-06-11T06:38:41.775Z,100883.75
2023-06-11T06:41:13.538Z,100863.41
2023-06-11T06:43:45.323Z,100867.38
2023-06-11T06:46:17.357Z,100890.28
2023-06-11T06:48:49.479Z,100869.53
2023-06-11T06:51:21.892Z,100873.38
2023-06-11T06:53:54.001Z,100883.72
2023-06-11T06:56:26.110Z,100881.84
2023-06-11T06:58:57.867Z,100887.81
2023-06-11T07:01:29.742Z,100883.63
2023-06-11T07:04:01.568Z,100893.44
2023-06-11T07:06:33.840Z,100892.28
2023-06-11T07:09:05.815Z,100870.81
2023-06-11T07:11:37.692Z,100886.69
2023-06-11T07:14:09.576Z,100874.28
2023-06-11T07:16:41.522Z,100885.91
2023-06-11T07:19:13.490Z,100881.03
2023-06-11T07:21:45.465Z,100882.50
2023-06-11T07:24:17.393Z,100879.50
2023-06-11T07:26:49.227Z,100870.22
2023-06-11T07:29:21.675Z,100864.44
2023-06-11T07:31:53.499Z,100879.44
2023-06-11T07:34:25.317Z,100871.41
2023-06-11T07:36:57.072Z,100880.88
2023-06-11T07:39:28.869Z,100886.19
2023-06-11T07:42:03.145Z,100861.56
2023-06-11T07:44:34.969Z,100894.63
2023-06-11T07:47:06.983Z,100871.97
2023-06-11T07:49:38.890Z,100864.38
2023-06-11T07:52:11.082Z,100882.63
2023-06-11T07:54:45.825Z,100892.63
2023-06-11T07:57:17.752Z,100894.28
2023-06-11T07:59:49.849Z,100896.13
2023-06-11T08:02:22.510Z,100888.19
2023-06-11T08:04:54.415Z,100896.44
2023-06-11T08:07:26.376Z,100888.91
2023-06-11T08:09:58.736Z,100882.44
2023-06-11T08:12:30.700Z,100879.09
2023-06-11T08:15:02.662Z,100896.81
2023-06-11T08:17:34.510Z,100858.97
2023-06-11T08:20:08.929Z,100882.72
2023-06-11T08:22:41.473Z,100899.88
2023-06-11T08:25:13.251Z,100885.09
2023-06-11T08:27:45.083Z,100883.25
2023-06-11T08:30:16.866Z,100878.97
2023-06-11T08:32:48.729Z,100882.75
2023-06-11T08:35:21.843Z,100888.41
2023-06-11T08:37:53.841Z,100858.00
2023-06-11T08:40:25.932Z,100865.13
2023-06-11T08:42:57.752Z,100874.16
2023-06-11T08:45:29.529Z,100879.94
2023-06-11T08:48:03.995Z,100870.72
2023-06-11T08:50:38.292Z,100871.31
2023-06-11T08:53:10.106Z,100863.53
2023-06-11T08:55:42.493Z,100881.59
2023-06-11T08:58:14.621Z,100849.88
2023-06-11T09:00:48.863Z,100860.41
2023-06-11T09:03:21.157Z,100838.63
2023-06-11T09:05:53.128Z,100863.78
2023-06-11T09:08:24.928Z,100851.41
2023-06-11T09:10:56.745Z,100851.38
2023-06-11T09:13:29.083Z,100852.88
2023-06-11T09:16:01.042Z,100855.53
2023-06-11T09:18:32.945Z,100823.50
2023-06-11T09:21:04.807Z,100859.44
2023-06-11T09:23:39.667Z,100865.69
2023-06-11T09:26:18.697Z,100849.97
2023-06-11T09:28:54.705Z,100859.94
2023-06-11T09:31:27.118Z,100810.72
2023-06-11T09:34:04.812Z,100837.63
2023-06-11T09:36:39.660Z,100839.84
2023-06-11T09:39:13.817Z,100855.94
2023-06-11T09:41:50.103Z,100853.25
2023-06-11T09:44:22.696Z,100825.75
2023-06-11T09:46:54.746Z,100813.91
2023-06-11T09:49:27.066Z,100845.88
2023-06-11T09:51:59.937Z,100818.56
2023-06-11T09:54:32.173Z,100786.41
2023-06-11T09:57:04.499Z,100848.59
2023-06-11T09:59:38.261Z,100807.91
2023-06-11T10:02:10.391Z,100836.38
2023-06-11T10:04:43.207Z,100823.94
2023-06-11T10:07:16.492Z,100824.78
2023-06-11T10:09:51.746Z,100836.16
2023-06-11T10:12:23.632Z,100841.47
2023-06-11T10:14:56.425Z,100807.84
2023-06-11T10:17:28.320Z,100821.84
2023-06-11T10:20:00.328Z,100816.28
2023-06-11T10:22:34.679Z,100820.75
2023-06-11T10:25:06.816Z,100844.00
2023-06-11T10:27:41.861Z,100835.47
2023-06-11T10:30:24.724Z,100815.44
2023-06-11T10:32:59.708Z,100822.66
2023-06-11T10:35:38.013Z,100825.50
2023-06-11T10:38:14.758Z,100791.00
2023-06-11T10:40:49.311Z,100769.63
2023-06-11T10:43:22.739Z,100837.19
2023-06-11T10:46:05.257Z,100823.22
2023-06-11T10:48:37.144Z,100808.41
2023-06-11T10:51:14.500Z,100822.06
2023-06-11T10:53:56.651Z,100831.94
2023-06-11T10:56:28.499Z,100815.34
2023-06-11T10:59:00.749Z,100789.44
2023-06-11T11:01:35.348Z,100842.00
2023-06-11T11:04:07.362Z,100815.38
2023-06-11T11:06:40.893Z,100819.41
2023-06-11T11:09:12.943Z,100825.19
2023-06-11T11:11:45.015Z,100810.09
2023-06-11T11:14:19.034Z,100831.25
2023-06-11T11:16:51.063Z,100796.22
2023-06-11T11:19:26.382Z,100815.75
2023-06-11T11:21:58.168Z,100819.88
2023-06-11T11:24:36.962Z,100827.31
2023-06-11T11:27:11.364Z,100793.66
2023-06-11T11:29:43.167Z,100820.28
2023-06-11T11:32:15.456Z,100790.00
2023-06-11T11:34:48.318Z,100824.22
2023-06-11T11:37:20.251Z,100806.47
2023-06-11T11:39:54.044Z,100785.41
2023-06-11T11:42:26.232Z,100776.72
2023-06-11T11:44:58.038Z,100782.41
2023-06-11T11:47:31.427Z,100789.38
2023-06-11T11:50:03.918Z,100778.75
2023-06-11T11:52:41.180Z,100812.97
2023-06-11T11:55:13.167Z,100805.00
2023-06-11T11:57:46.278Z,100807.63
2023-06-11T12:00:26.811Z,100798.22
2023-06-11T12:02:59.980Z,100817.09
2023-06-11T12:05:31.868Z,100818.09
2023-06-11T12:08:07.057Z,100822.59
2023-06-11T12:10:38.844Z,100791.97
2023-06-11T12:13:10.636Z,100803.25
2023-06-11T12:15:42.410Z,100770.31
2023-06-11T12:18:14.274Z,100786.09
2023-06-11T12:20:46.981Z,100781.13
2023-06-11T12:23:18.953Z,100801.81
2023-06-11T12:25:50.839Z,100800.22
2023-06-11T12:28:25.406Z,100818.31
2023-06-11T12:30:58.224Z,100794.94
2023-06-11T12:33:30.965Z,100815.47
2023-06-11T12:36:03.005Z,100820.91
2023-06-11T12:38:39.512Z,100805.09
2023-06-11T12:41:12.580Z,100825.50
2023-06-11T12:43:44.368Z,100812.34
2023-06-11T12:46:16.761Z,100802.22
2023-06-11T12:48:48.575Z,100803.34
2023-06-11T12:51:21.290Z,100800.69
2023-06-11T12:53:54.364Z,100792.28
2023-06-11T12:56:34.563Z,100790.63
2023-06-11T12:59:06.531Z,100763.97
2023-06-11T13:01:41.276Z,100804.84
2023-06-11T13:04:13.175Z,100796.81
2023-06-11T13:06:46.433Z,100805.91
2023-06-11T13:09:20.072Z,100797.31
2023-06-11T13:11:52.678Z,100791.47
2023-06-11T13:14:24.492Z,100777.41
2023-06-11T13:16:56.977Z,100772.84
2023-06-11T13:19:28.894Z,100788.88
2023-06-11T13:22:01.316Z,100790.75
2023-06-11T13:24:33.236Z,100782.97
2023-06-11T13:27:05.732Z,100796.78
2023-06-11T13:29:39.131Z,100781.94
2023-06-11T13:32:11.082Z,100772.81
2023-06-11T13:34:43.084Z,100797.28
2023-06-11T13:37:15.152Z,100766.31
2023-06-11T13:39:46.956Z,100780.06
2023-06-11T13:42:18.882Z,100784.66
2023-06-11T13:44:51.771Z,100782.97
2023-06-11T13:47:23.570Z,100778.34
2023-06-11T13:49:55.392Z,100789.47
2023-06-11T13:52:27.230Z,100795.63
2023-06-11T13:54:59.134Z,100808.06
2023-06-11T13:57:32.520Z,100767.25
2023-06-11T14:00:05.853Z,100767.50
2023-06-11T14:02:37.686Z,100785.84
2023-06-11T14:05:09.546Z,100780.91
2023-06-11T14:07:42.525Z,100791.81
2023-06-11T14:10:14.550Z,100786.03
2023-06-11T14:12:47.976Z,100800.47
2023-06-11T14:15:20.153Z,100804.44
2023-06-11T14:17:53.734Z,100794.09
2023-06-11T14:20:25.618Z,100777.94
2023-06-11T14:22:57.477Z,100774.69
2023-06-11T14:25:30.345Z,100789.75
2023-06-11T14:28:02.180Z,100755.22
2023-06-11T14:30:33.990Z,100787.44
2023-06-11T14:33:06.180Z,100796.91
2023-06-11T14:35:38.052Z,100793.69
2023-06-11T14:38:09.908Z,100770.84
2023-06-11T14:40:44.152Z,100796.91
2023-06-11T14:43:16.202Z,100763.38
2023-06-11T14:45:48.424Z,100797.75
2023-06-11T14:48:20.428Z,100793.75
2023-06-11T14:50:52.212Z,100780.50
2023-06-11T14:53:24.037Z,100777.50
2023-06-11T14:55:56.665Z,100785.72
2023-06-11T14:58:29.549Z,100760.03
2023-06-11T15:01:02.515Z,100785.06
2023-06-11T15:03:34.401Z,100768.16
2023-06-11T15:06:08.929Z,100780.81
2023-06-11T15:08:41.135Z,100773.84
2023-06-11T15:11:12.999Z,100779.88
2023-06-11T15:13:44.764Z,100778.38
2023-06-11T15:16:16.740Z,100771.06
2023-06-11T15:18:48.563Z,100778.34
2023-06-11T15:21:21.080Z,100796.25
2023-06-11T15:23:52.898Z,100748.88
2023-06-11T15:26:24.958Z,100767.47
2023-06-11T15:28:57.080Z,100779.81
2023-06-11T15:31:29.009Z,100753.69
2023-06-11T15:34:00.847Z,100775.84
2023-06-11T15:36:33.802Z,100746.75
2023-06-11T15:39:05.933Z,100777.06
2023-06-11T15:41:37.738Z,100783.59
2023-06-11T15:44:09.595Z,100801.59
2023-06-11T15:46:41.425Z,100787.63
2023-06-11T15:49:13.245Z,100785.25
2023-06-11T15:51:46.931Z,100805.59
2023-06-11T15:54:20.369Z,100796.91
2023-06-11T15:56:52.255Z,100776.88
2023-06-11T15:59:24.007Z,100788.94
2023-06-11T16:01:59.174Z,100801.28
2023-06-11T16:04:33.066Z,100791.66
2023-06-11T16:07:06.658Z,100795.59
2023-06-11T16:09:38.937Z,100800.63
2023-06-11T16:12:11.083Z,100761.97
2023-06-11T16:14:43.233Z,100800.88
2023-06-11T16:17:16.499Z,100782.91
2023-06-11T16:19:48.304Z,100761.16
2023-06-11T16:22:20.176Z,100797.13
2023-06-11T16:24:52.122Z,100767.09
2023-06-11T16:27:24.183Z,100788.34
2023-06-11T16:29:55.983Z,100792.69
2023-06-11T16:32:27.823Z,100762.25
2023-06-11T16:34:59.644Z,100802.66
2023-06-11T16:37:31.961Z,100804.03
2023-06-11T16:40:03.834Z,100809.16
2023-06-11T16:42:35.750Z,100786.25
2023-06-11T16:45:07.944Z,100797.63
2023-06-11T16:47:42.307Z,100787.63
2023-06-11T16:50:14.844Z,100813.34
2023-06-11T16:52:48.514Z,100792.59
2023-06-11T16:55:21.650Z,100818.13
2023-06-11T16:57:55.072Z,100819.16
2023-06-11T17:00:28.939Z,100812.13
2023-06-11T17:03:00.876Z,100810.78
2023-06-11T17:05:33.165Z,100830.03
2023-06-11T17:08:05.058Z,100817.00
2023-06-11T17:10:37.005Z,100796.91
2023-06-11T17:13:08.884Z,100825.69
2023-06-11T17:15:40.661Z,100809.69
2023-06-11T17:18:12.622Z,100806.78
2023-06-11T17:20:47.201Z,100836.09
2023-06-11T17:23:19.469Z,100804.31
2023-06-11T17:25:51.386Z,100831.06
2023-06-11T17:28:24.606Z,100826.28
2023-06-11T17:30:56.496Z,100821.47
2023-06-11T17:33:28.357Z,100810.44
2023-06-11T17:36:00.164Z,100780.03
2023-06-11T17:38:31.954Z,100811.31
2023-06-11T17:41:05.302Z,100823.66
2023-06-11T17:43:37.107Z,100820.28
2023-06-11T17:46:11.758Z,100810.88
2023-06-11T17:48:43.752Z,100797.78
2023-06-11T17:51:15.663Z,100814.09
2023-06-11T17:53:48.536Z,100839.53
2023-06-11T17:56:20.314Z,100806.34
2023-06-11T17:58:52.116Z,100826.78
2023-06-11T18:01:24.668Z,100822.16
2023-06-11T18:03:56.749Z,100842.78
2023-06-11T18:06:29.003Z,100843.41
2023-06-11T18:09:01.842Z,100830.31
2023-06-11T18:11:33.689Z,100841.03
2023-06-11T18:14:06.035Z,100818.59
2023-06-11T18:16:37.918Z,100842.00
2023-06-11T18:19:09.874Z,100821.47
2023-06-11T18:21:41.695Z,100827.69
2023-06-11T18:24:15.289Z,100835.66
2023-06-11T18:26:47.154Z,100817.47
2023-06-11T18:29:18.937Z,100846.34
2023-06-11T18:31:50.853Z,100824.41
2023-06-11T18:34:22.665Z,100814.31
2023-06-11T18:36:54.520Z,100803.66
2023-06-11T18:39:26.305Z,100860.78
2023-06-11T18:41:58.089Z,100831.09
2023-06-11T18:44:29.864Z,100850.38
2023-06-11T18:47:02.289Z,100840.16
2023-06-11T18:49:34.171Z,100839.34
2023-06-11T18:52:07.881Z,100859.97
2023-06-11T18:54:39.679Z,100859.72
2023-06-11T18:57:12.085Z,100848.53
2023-06-11T18:59:43.901Z,100875.53
2023-06-11T19:02:15.740Z,100859.88
2023-06-11T19:04:47.573Z,100862.88
2023-06-11T19:07:19.504Z,100865.38
2023-06-11T19:09:51.811Z,100888.31
2023-06-11T19:12:23.677Z,100869.06
2023-06-11T19:14:56.137Z,100873.69
2023-06-11T19:17:27.937Z,100879.78
2023-06-11T19:19:59.869Z,100869.28
2023-06-11T19:22:32.109Z,100853.50
2023-06-11T19:25:04.428Z,100889.38
2023-06-11T19:27:36.684Z,100875.06
2023-06-11T19:30:08.965Z,100836.91
2023-06-11T19:32:40.857Z,100872.56
2023-06-11T19:35:12.706Z,100904.78
2023-06-11T19:37:45.112Z,100875.50
2023-06-11T19:40:16.923Z,100893.16
2023-06-11T19:42:48.709Z,100857.03
2023-06-11T19:45:22.321Z,100875.81
2023-06-11T19:47:54.388Z,100897.91
2023-06-11T19:50:27.580Z,100896.69
2023-06-11T19:53:02.964Z,100889.81
2023-06-11T19:55:35.205Z,100905.56
2023-06-11T19:58:08.181Z,100851.28
2023-06-11T20:00:40.016Z,100879.31
2023-06-11T20:03:11.842Z,100874.22
2023-06-11T20:05:44.029Z,100907.22
2023-06-11T20:08:16.475Z,100877.91
2023-06-11T20:10:48.415Z,100902.09
2023-06-11T20:13:20.188Z,100913.72
2023-06-11T20:15:52.627Z,100919.50
2023-06-11T20:18:24.432Z,100894.03
2023-06-11T20:20:56.322Z,100921.38
2023-06-11T20:23:28.331Z,100906.84
2023-06-11T20:26:00.622Z,100882.63
2023-06-11T20:28:32.934Z,100909.44
2023-06-11T20:31:05.244Z,100907.38
2023-06-11T20:33:37.078Z,100890.59
2023-06-11T20:36:08.918Z,100883.28
2023-06-11T20:38:40.753Z,100893.66
2023-06-11T20:41:12.568Z,100885.75
2023-06-11T20:43:44.353Z,100912.13
2023-06-11T20:48:55.833Z,100886.09
2023-06-11T20:51:27.674Z,100910.94
2023-06-11T20:53:59.476Z,100894.16
2023-06-11T20:56:31.333Z,100878.88
2023-06-11T20:59:03.133Z,100879.38
2023-06-11T21:01:35.083Z,100870.06
2023-06-11T21:04:07.140Z,100911.81
2023-06-11T21:06:41.936Z,100874.50
2023-06-11T21:09:13.794Z,100882.63
2023-06-11T21:11:45.669Z,100882.75
2023-06-11T21:14:17.530Z,100854.75
2023-06-11T21:16:49.800Z,100879.91
2023-06-11T21:19:21.688Z,100858.94
2023-06-11T21:21:53.600Z,100903.91
2023-06-11T21:24:25.428Z,100897.66
2023-06-11T21:26:57.474Z,100869.16
2023-06-11T21:29:29.311Z,100905.47
2023-06-11T21:32:01.170Z,100880.69
2023-06-11T21:34:32.980Z,100917.06
2023-06-11T21:37:05.026Z,100883.91
2023-06-11T21:39:36.894Z,100912.41
2023-06-11T21:42:09.303Z,100887.38
2023-06-11T21:44:41.307Z,100878.09
2023-06-11T21:47:13.320Z,100880.97
2023-06-11T21:49:45.090Z,100885.47
2023-06-11T21:52:22.509Z,100915.53
2023-06-11T21:54:58.208Z,100908.78
2023-06-11T21:57:30.320Z,100878.38
2023-06-11T22:00:13.180Z,100887.53
2023-06-11T22:02:45.700Z,100835.53
2023-06-11T22:05:18.856Z,100873.75
2023-06-11T22:07:52.257Z,100877.31
2023-06-11T22:10:24.203Z,100886.34
2023-06-11T22:12:59.230Z,100901.41
2023-06-11T22:15:31.141Z,100861.16
2023-06-11T22:18:05.661Z,100897.16
2023-06-11T22:20:37.691Z,100850.59
2023-06-11T22:23:09.516Z,100883.72
2023-06-11T22:25:41.596Z,100872.56
2023-06-11T22:28:13.487Z,100890.97
2023-06-11T22:30:56.579Z,100864.72
2023-06-11T22:33:28.995Z,100879.00
2023-06-11T22:36:00.783Z,100867.44
2023-06-11T22:38:32.596Z,100884.91
2023-06-11T22:41:04.421Z,100859.72
2023-06-11T22:43:36.794Z,100887.16
2023-06-11T22:46:08.710Z,100866.41
2023-06-11T22:48:42.603Z,100874.59
2023-06-11T22:51:14.649Z,100827.78
2023-06-11T22:53:46.491Z,100895.72
2023-06-11T22:56:18.541Z,100880.88
2023-06-11T22:58:50.410Z,100889.16
2023-06-11T23:01:22.260Z,100890.22
2023-06-11T23:03:54.654Z,100887.13
2023-06-11T23:06:28.181Z,100859.88
2023-06-11T23:08:59.971Z,100857.97
2023-06-11T23:11:31.737Z,100875.81
2023-06-11T23:14:03.497Z,100841.84
2023-06-11T23:16:38.596Z,100854.84
2023-06-11T23:19:11.622Z,100886.66
2023-06-11T23:21:43.891Z,100846.59
2023-06-11T23:24:18.656Z,100837.53
2023-06-11T23:26:51.504Z,100867.91
2023-06-11T23:29:25.025Z,100867.91
2023-06-11T23:31:56.993Z,100872.72
2023-06-11T23:34:29.389Z,100879.97
2023-06-11T23:37:01.788Z,100871.84
2023-06-11T23:39:34.507Z,100856.75
2023-06-11T23:42:07.189Z,100872.44
2023-06-11T23:44:39.034Z,100885.28
2023-06-11T23:47:10.884Z,100863.44
2023-06-11T23:49:43.369Z,100871.25
2023-06-11T23:52:15.136Z,100883.41
2023-06-11T23:54:46.899Z,100868.19
2023-06-11T23:57:18.708Z,100819.38
2023-06-11T23:59:51.214Z,100872.34
